createdAt,value
2019-04-19T00:01:00.601Z,98.50
2019-04-19T00:02:01.373Z,99.99
2019-04-19T00:02:54.695Z,99.83
2019-04-19T00:03:57.276Z,99.99
2019-04-19T00:04:57.309Z,99.99
2019-04-19T00:05:54.315Z,99.99
2019-04-19T00:07:01.962Z,99.99
2019-04-19T00:08:12.494Z,99.99
2019-04-19T00:09:12.206Z,99.99
2019-04-19T00:10:00.766Z,99.99
2019-04-19T00:11:01.907Z,99.99
2019-04-19T00:12:06.831Z,99.99
2019-04-19T00:12:59.502Z,99.99
2019-04-19T00:13:54.087Z,99.99
2019-04-19T00:14:54.853Z,99.99
2019-04-19T00:15:54.056Z,99.99
2019-04-19T00:16:54.000Z,99.99
2019-04-19T00:18:03.088Z,99.99
2019-04-19T00:19:18.406Z,99.99
2019-04-19T00:20:18.132Z,99.99
2019-04-19T00:21:12.479Z,99.99
2019-04-19T00:22:13.299Z,99.99
2019-04-19T00:23:04.293Z,99.99
2019-04-19T00:23:56.154Z,99.99
2019-04-19T00:24:54.423Z,99.99
2019-04-19T00:25:53.751Z,99.99
2019-04-19T00:26:54.864Z,99.99
2019-04-19T00:27:58.256Z,99.99
2019-04-19T00:28:58.328Z,99.99
2019-04-19T00:29:59.510Z,99.99
2019-04-19T00:31:10.977Z,99.99
2019-04-19T00:32:12.466Z,99.99
2019-04-19T00:33:04.595Z,99.99
2019-04-19T00:33:55.963Z,99.99
2019-04-19T00:34:54.593Z,99.99
2019-04-19T00:35:53.802Z,99.99
2019-04-19T00:36:53.429Z,99.99
2019-04-19T00:38:01.570Z,99.99
2019-04-19T00:39:12.038Z,99.99
2019-04-19T00:40:12.717Z,99.99
2019-04-19T00:41:14.185Z,99.99
2019-04-19T00:42:10.619Z,99.99
2019-04-19T00:43:03.763Z,99.99
2019-04-19T00:44:09.168Z,99.99
2019-04-19T00:45:15.215Z,99.99
2019-04-19T00:46:14.319Z,99.99
2019-04-19T00:47:17.768Z,99.99
2019-04-19T00:48:06.194Z,99.99
2019-04-19T00:49:02.911Z,99.99
2019-04-19T00:50:07.238Z,99.99
2019-04-19T00:51:04.122Z,99.99
2019-04-19T00:52:05.516Z,99.99
2019-04-19T00:53:07.588Z,99.99
2019-04-19T00:54:04.985Z,99.99
2019-04-19T00:55:03.632Z,99.99
2019-04-19T00:56:03.883Z,99.99
2019-04-19T00:56:59.636Z,99.99
2019-04-19T00:57:59.888Z,99.99
2019-04-19T00:59:00.221Z,99.99
2019-04-19T00:59:54.876Z,99.99
2019-04-19T01:00:52.857Z,99.99
2019-04-19T01:01:57.641Z,99.99
2019-04-19T01:02:56.377Z,99.99
2019-04-19T01:03:53.950Z,99.99
2019-04-19T01:04:59.338Z,99.99
2019-04-19T01:06:00.688Z,99.99
2019-04-19T01:06:58.525Z,99.99
2019-04-19T01:07:53.654Z,99.99
2019-04-19T01:09:01.201Z,99.99
2019-04-19T01:10:11.829Z,99.99
2019-04-19T01:11:07.854Z,99.99
2019-04-19T01:12:06.922Z,99.99
2019-04-19T01:13:06.927Z,99.99
2019-04-19T01:14:07.322Z,99.99
2019-04-19T01:15:06.943Z,99.99
2019-04-19T01:16:06.002Z,99.99
2019-04-19T01:17:07.491Z,99.99
2019-04-19T01:18:10.117Z,99.99
2019-04-19T01:19:00.687Z,99.99
2019-04-19T01:19:58.730Z,99.99
2019-04-19T01:20:52.346Z,99.99
2019-04-19T01:21:53.338Z,99.99
2019-04-19T01:22:58.555Z,99.99
2019-04-19T01:23:56.605Z,99.99
2019-04-19T01:24:52.875Z,99.99
2019-04-19T01:25:57.601Z,99.99
2019-04-19T01:26:54.714Z,99.99
2019-04-19T01:27:53.059Z,99.99
2019-04-19T01:28:58.846Z,99.99
2019-04-19T01:29:55.142Z,99.99
2019-04-19T01:30:52.374Z,99.99
2019-04-19T01:32:00.403Z,99.99
2019-04-19T01:32:57.202Z,99.99
2019-04-19T01:33:52.679Z,99.99
2019-04-19T01:34:57.865Z,99.99
2019-04-19T01:35:54.496Z,99.99
2019-04-19T01:36:53.111Z,99.99
2019-04-19T01:37:57.764Z,99.99
2019-04-19T01:39:04.931Z,99.99
2019-04-19T01:40:05.915Z,99.99
2019-04-19T01:41:09.879Z,99.99
2019-04-19T01:42:04.135Z,99.99
2019-04-19T01:43:06.158Z,99.99
2019-04-19T01:44:06.544Z,99.99
2019-04-19T01:45:04.091Z,99.99
2019-04-19T01:46:05.871Z,99.99
2019-04-19T01:47:04.971Z,99.99
2019-04-19T01:48:06.327Z,99.99
2019-04-19T01:49:05.626Z,99.99
2019-04-19T01:50:04.205Z,99.99
2019-04-19T01:51:10.473Z,99.99
2019-04-19T01:52:09.794Z,99.99
2019-04-19T01:53:15.927Z,99.99
2019-04-19T01:54:12.844Z,99.99
2019-04-19T01:55:02.730Z,99.99
2019-04-19T01:55:53.169Z,99.99
2019-04-19T01:56:57.085Z,99.99
2019-04-19T01:57:53.982Z,99.99
2019-04-19T01:58:55.806Z,99.99
2019-04-19T01:59:55.373Z,99.99
2019-04-19T02:00:55.439Z,99.99
2019-04-19T02:01:59.637Z,99.99
2019-04-19T02:02:54.791Z,99.99
2019-04-19T02:03:53.685Z,99.99
2019-04-19T02:04:52.971Z,99.99
2019-04-19T02:05:55.820Z,99.99
2019-04-19T02:06:51.624Z,99.99
2019-04-19T02:07:58.013Z,99.99
2019-04-19T02:08:55.058Z,99.99
2019-04-19T02:10:02.935Z,99.99
2019-04-19T02:10:58.717Z,99.99
2019-04-19T02:11:57.861Z,99.99
2019-04-19T02:13:02.598Z,99.99
2019-04-19T02:14:00.685Z,99.99
2019-04-19T02:14:58.587Z,99.99
2019-04-19T02:15:53.181Z,99.99
2019-04-19T02:16:55.887Z,99.99
2019-04-19T02:17:52.598Z,99.99
2019-04-19T02:18:54.158Z,99.99
2019-04-19T02:19:58.212Z,99.99
2019-04-19T02:20:51.942Z,99.99
2019-04-19T02:21:51.090Z,99.99
2019-04-19T02:22:55.162Z,99.99
2019-04-19T02:23:54.625Z,99.99
2019-04-19T02:24:53.737Z,99.99
2019-04-19T02:25:53.650Z,99.99
2019-04-19T02:26:54.297Z,99.99
2019-04-19T02:27:51.513Z,99.99
2019-04-19T02:28:51.277Z,99.99
2019-04-19T02:29:56.378Z,99.99
2019-04-19T02:31:10.700Z,99.99
2019-04-19T02:32:22.148Z,99.99
2019-04-19T02:33:15.436Z,99.99
2019-04-19T02:34:27.566Z,99.99
2019-04-19T02:35:11.290Z,99.99
2019-04-19T02:36:17.805Z,99.99
2019-04-19T02:37:23.138Z,99.99
2019-04-19T02:38:13.322Z,99.99
2019-04-19T02:39:24.095Z,99.99
2019-04-19T02:40:39.576Z,99.99
2019-04-19T02:41:34.706Z,99.99
2019-04-19T02:42:23.923Z,99.99
2019-04-19T02:43:36.205Z,99.99
2019-04-19T02:44:10.850Z,99.99
2019-04-19T02:47:34.679Z,99.99
2019-04-19T02:48:16.291Z,99.99
2019-04-19T02:49:20.054Z,99.99
2019-04-19T02:51:29.769Z,99.99
2019-04-19T02:52:25.855Z,99.99
2019-04-19T02:53:16.677Z,99.99
2019-04-19T02:54:17.772Z,99.99
2019-04-19T02:56:26.859Z,99.99
2019-04-19T02:57:23.101Z,99.99
2019-04-19T02:58:15.458Z,99.99
2019-04-19T02:59:21.257Z,99.99
2019-04-19T03:01:18.813Z,99.99
2019-04-19T03:02:26.722Z,99.99
2019-04-19T03:03:24.614Z,99.99
2019-04-19T03:04:24.066Z,99.99
2019-04-19T03:05:13.405Z,99.99
2019-04-19T03:06:07.560Z,99.99
2019-04-19T03:06:54.324Z,99.99
2019-04-19T03:07:50.329Z,99.99
2019-04-19T03:08:50.226Z,99.99
2019-04-19T03:09:50.444Z,99.99
2019-04-19T03:11:02.017Z,99.99
2019-04-19T03:12:00.840Z,99.99
2019-04-19T03:13:03.331Z,99.99
2019-04-19T03:14:03.187Z,99.99
2019-04-19T03:15:01.981Z,99.99
2019-04-19T03:16:05.473Z,99.99
2019-04-19T03:17:05.562Z,99.99
2019-04-19T03:18:16.516Z,99.99
2019-04-19T03:19:00.956Z,99.99
2019-04-19T03:20:06.714Z,99.99
2019-04-19T03:20:59.335Z,99.99
2019-04-19T03:22:00.654Z,99.99
2019-04-19T03:23:07.246Z,99.99
2019-04-19T03:24:08.800Z,99.99
2019-04-19T03:25:06.592Z,99.99
2019-04-19T03:25:59.190Z,99.99
2019-04-19T03:27:00.997Z,99.99
2019-04-19T03:27:59.792Z,99.99
2019-04-19T03:28:53.234Z,99.99
2019-04-19T03:29:55.690Z,99.99
2019-04-19T03:31:14.809Z,99.99
2019-04-19T03:32:22.662Z,99.99
2019-04-19T03:33:21.409Z,99.99
2019-04-19T03:34:16.538Z,99.99
2019-04-19T03:35:06.523Z,99.99
2019-04-19T03:36:05.397Z,99.99
2019-04-19T03:37:00.101Z,99.99
2019-04-19T03:38:07.149Z,99.99
2019-04-19T03:39:14.433Z,99.99
2019-04-19T03:40:13.124Z,99.99
2019-04-19T03:41:09.237Z,99.99
2019-04-19T03:43:10.381Z,99.99
2019-04-19T03:44:06.190Z,99.99
2019-04-19T03:45:08.219Z,99.99
2019-04-19T03:46:12.615Z,99.99
2019-04-19T03:47:21.471Z,99.99
2019-04-19T03:48:09.203Z,99.99
2019-04-19T03:49:08.688Z,99.99
2019-04-19T03:50:03.605Z,99.99
2019-04-19T03:51:18.522Z,99.99
2019-04-19T03:52:08.564Z,99.99
2019-04-19T03:53:07.169Z,99.99
2019-04-19T03:54:07.361Z,99.99
2019-04-19T03:55:09.072Z,99.99
2019-04-19T03:56:14.042Z,99.99
2019-04-19T03:57:00.264Z,99.99
2019-04-19T03:57:55.032Z,99.99
2019-04-19T03:58:48.279Z,99.99
2019-04-19T03:59:47.827Z,99.99
2019-04-19T04:00:47.757Z,99.99
2019-04-19T04:01:52.825Z,99.99
2019-04-19T04:02:49.346Z,99.99
2019-04-19T04:03:50.646Z,99.99
2019-04-19T04:04:54.497Z,99.99
2019-04-19T04:05:50.383Z,99.99
2019-04-19T04:06:48.753Z,99.99
2019-04-19T04:07:55.313Z,99.99
2019-04-19T04:08:53.630Z,99.99
2019-04-19T04:09:51.779Z,99.99
2019-04-19T04:10:48.599Z,99.99
2019-04-19T04:11:58.733Z,99.99
2019-04-19T04:12:56.658Z,99.99
2019-04-19T04:13:59.851Z,99.99
2019-04-19T04:15:02.679Z,99.99
2019-04-19T04:16:04.644Z,99.99
2019-04-19T04:16:50.700Z,99.99
2019-04-19T04:17:47.745Z,99.99
2019-04-19T04:18:47.137Z,99.99
2019-04-19T04:19:46.830Z,99.99
2019-04-19T04:20:52.209Z,99.99
2019-04-19T04:21:49.834Z,99.99
2019-04-19T04:22:48.252Z,99.99
2019-04-19T04:23:58.972Z,99.99
2019-04-19T04:24:58.313Z,99.99
2019-04-19T04:25:54.260Z,99.99
2019-04-19T04:26:56.932Z,99.99
2019-04-19T04:27:59.578Z,99.99
2019-04-19T04:28:58.640Z,99.99
2019-04-19T04:30:00.307Z,99.99
2019-04-19T04:31:28.123Z,99.99
2019-04-19T04:31:57.990Z,99.99
2019-04-19T04:32:57.013Z,99.99
2019-04-19T04:33:58.138Z,99.99
2019-04-19T04:34:56.730Z,99.99
2019-04-19T04:36:04.167Z,99.99
2019-04-19T04:37:01.770Z,99.99
2019-04-19T04:37:59.595Z,99.99
2019-04-19T04:38:47.854Z,99.99
2019-04-19T04:39:47.234Z,99.99
2019-04-19T04:40:46.572Z,99.99
2019-04-19T04:41:48.464Z,99.99
2019-04-19T04:43:01.380Z,99.99
2019-04-19T04:44:07.101Z,99.99
2019-04-19T04:45:14.975Z,99.99
2019-04-19T04:47:07.492Z,99.99
2019-04-19T04:48:02.679Z,99.99
2019-04-19T04:49:04.793Z,99.99
2019-04-19T04:50:05.253Z,99.99
2019-04-19T04:51:05.701Z,99.99
2019-04-19T04:51:58.909Z,99.99
2019-04-19T04:52:47.767Z,99.99
2019-04-19T04:53:46.964Z,99.99
2019-04-19T04:54:46.666Z,99.99
2019-04-19T04:55:53.558Z,99.99
2019-04-19T04:56:56.760Z,99.99
2019-04-19T04:57:53.831Z,99.99
2019-04-19T04:58:47.800Z,99.99
2019-04-19T04:59:50.349Z,99.99
2019-04-19T05:00:55.005Z,99.99
2019-04-19T05:01:54.943Z,99.99
2019-04-19T05:03:02.135Z,99.99
2019-04-19T05:04:02.127Z,99.99
2019-04-19T05:05:08.674Z,99.99
2019-04-19T05:06:08.149Z,99.99
2019-04-19T05:07:04.627Z,99.99
2019-04-19T05:08:11.325Z,99.99
2019-04-19T05:08:59.924Z,99.99
2019-04-19T05:10:08.522Z,99.99
2019-04-19T05:11:06.443Z,99.99
2019-04-19T05:12:07.654Z,99.99
2019-04-19T05:14:05.897Z,99.99
2019-04-19T05:14:57.927Z,99.99
2019-04-19T05:16:06.883Z,99.99
2019-04-19T05:17:22.771Z,99.99
2019-04-19T05:18:13.801Z,99.99
2019-04-19T05:18:58.474Z,99.99
2019-04-19T05:20:03.703Z,99.99
2019-04-19T05:20:55.743Z,99.99
2019-04-19T05:22:08.704Z,99.99
2019-04-19T05:23:06.417Z,99.99
2019-04-19T05:24:05.083Z,99.99
2019-04-19T05:25:12.512Z,99.99
2019-04-19T05:26:11.994Z,99.99
2019-04-19T05:27:11.793Z,99.99
2019-04-19T05:28:03.900Z,99.08
2019-04-19T05:29:00.674Z,96.55
2019-04-19T05:29:49.442Z,92.65
2019-04-19T05:30:51.887Z,88.88
2019-04-19T05:31:49.783Z,83.83
2019-04-19T05:32:59.444Z,81.67
2019-04-19T05:34:08.206Z,78.66
2019-04-19T05:35:00.251Z,76.12
2019-04-19T05:36:04.231Z,75.20
2019-04-19T05:37:02.495Z,73.19
2019-04-19T05:38:00.875Z,71.89
2019-04-19T05:39:06.014Z,69.54
2019-04-19T05:40:04.822Z,67.91
2019-04-19T05:40:57.186Z,66.89
2019-04-19T05:42:00.040Z,65.55
2019-04-19T05:42:56.513Z,65.08
2019-04-19T05:44:15.280Z,64.31
2019-04-19T05:45:20.386Z,63.76
2019-04-19T05:46:13.718Z,63.29
2019-04-19T05:47:05.961Z,62.81
2019-04-19T05:47:54.434Z,62.43
2019-04-19T05:48:52.510Z,62.46
2019-04-19T05:50:00.833Z,61.50
2019-04-19T05:51:09.363Z,60.83
2019-04-19T05:52:00.714Z,60.83
2019-04-19T05:53:00.177Z,60.73
2019-04-19T05:53:49.624Z,60.25
2019-04-19T05:54:45.090Z,59.90
2019-04-19T05:55:44.099Z,58.46
2019-04-19T05:56:50.235Z,58.20
2019-04-19T05:57:56.825Z,57.24
2019-04-19T05:58:55.760Z,56.57
2019-04-19T05:59:53.957Z,56.96
2019-04-19T06:00:58.157Z,56.86
2019-04-19T06:02:00.598Z,56.96
2019-04-19T06:02:58.281Z,56.48
2019-04-19T06:04:02.620Z,56.19
2019-04-19T06:05:10.093Z,55.80
2019-04-19T06:06:10.847Z,55.49
2019-04-19T06:07:05.068Z,56.64
2019-04-19T06:07:56.064Z,56.38
2019-04-19T06:08:44.464Z,56.00
2019-04-19T06:09:43.789Z,55.90
2019-04-19T06:10:52.291Z,56.22
2019-04-19T06:11:45.029Z,55.26
2019-04-19T06:12:44.935Z,54.88
2019-04-19T06:13:51.953Z,54.68
2019-04-19T06:15:10.395Z,54.68
2019-04-19T06:16:06.922Z,55.35
2019-04-19T06:16:55.061Z,54.94
2019-04-19T06:18:00.435Z,55.45
2019-04-19T06:18:55.022Z,54.80
2019-04-19T06:20:03.218Z,53.85
2019-04-19T06:21:04.551Z,53.49
2019-04-19T06:21:57.226Z,52.34
2019-04-19T06:23:03.917Z,52.26
2019-04-19T06:24:06.286Z,51.21
2019-04-19T06:25:01.058Z,50.68
2019-04-19T06:26:27.327Z,50.01
2019-04-19T06:28:12.831Z,48.66
2019-04-19T06:29:06.670Z,47.97
2019-04-19T06:30:10.199Z,48.74
2019-04-19T06:31:03.149Z,48.83
2019-04-19T06:32:07.417Z,48.64
2019-04-19T06:33:02.356Z,49.29
2019-04-19T06:34:03.697Z,50.32
2019-04-19T06:34:59.165Z,50.44
2019-04-19T06:35:51.486Z,49.12
2019-04-19T06:36:57.635Z,48.81
2019-04-19T06:37:43.878Z,48.93
2019-04-19T06:38:44.412Z,48.35
2019-04-19T06:39:43.726Z,48.25
2019-04-19T06:40:52.491Z,47.58
2019-04-19T06:41:50.730Z,48.90
2019-04-19T06:42:49.876Z,48.35
2019-04-19T06:43:52.088Z,48.08
2019-04-19T06:45:03.735Z,47.24
2019-04-19T06:45:59.782Z,46.21
2019-04-19T06:46:58.464Z,45.83
2019-04-19T06:47:49.756Z,44.98
2019-04-19T06:48:50.080Z,44.31
2019-04-19T06:49:43.671Z,44.38
2019-04-19T06:50:46.253Z,45.03
2019-04-19T06:51:53.908Z,46.38
2019-04-19T06:52:42.930Z,46.06
2019-04-19T06:53:50.267Z,46.06
2019-04-19T06:54:44.574Z,46.84
2019-04-19T06:55:48.022Z,46.93
2019-04-19T06:56:55.703Z,46.36
2019-04-19T06:57:53.548Z,46.36
2019-04-19T06:58:53.024Z,47.03
2019-04-19T06:59:57.767Z,46.93
2019-04-19T07:00:57.315Z,46.91
2019-04-19T07:01:49.260Z,47.41
2019-04-19T07:02:43.478Z,46.95
2019-04-19T07:03:42.832Z,46.38
2019-04-19T07:04:52.361Z,45.78
2019-04-19T07:05:57.046Z,46.50
2019-04-19T07:07:02.724Z,45.80
2019-04-19T07:08:14.354Z,46.16
2019-04-19T07:09:07.848Z,46.38
2019-04-19T07:10:09.019Z,46.28
2019-04-19T07:11:08.395Z,46.47
2019-04-19T07:12:20.999Z,46.28
2019-04-19T07:13:00.828Z,46.31
2019-04-19T07:13:53.107Z,44.89
2019-04-19T07:15:05.368Z,43.54
2019-04-19T07:16:10.340Z,44.13
2019-04-19T07:17:04.519Z,44.25
2019-04-19T07:17:58.561Z,42.76
2019-04-19T07:18:56.180Z,43.78
2019-04-19T07:19:57.483Z,44.11
2019-04-19T07:21:04.781Z,43.82
2019-04-19T07:22:00.700Z,43.55
2019-04-19T07:22:57.849Z,43.10
2019-04-19T07:24:03.955Z,43.58
2019-04-19T07:25:07.844Z,42.23
2019-04-19T07:26:04.172Z,42.80
2019-04-19T07:27:03.205Z,42.75
2019-04-19T07:27:53.056Z,41.42
2019-04-19T07:28:43.416Z,40.26
2019-04-19T07:29:45.287Z,39.74
2019-04-19T07:30:49.202Z,40.92
2019-04-19T07:31:43.051Z,41.11
2019-04-19T07:32:48.358Z,39.95
2019-04-19T07:33:53.803Z,39.37
2019-04-19T07:34:57.066Z,39.49
2019-04-19T07:36:05.136Z,39.28
2019-04-19T07:37:03.951Z,40.61
2019-04-19T07:37:58.756Z,40.90
2019-04-19T07:39:05.566Z,39.94
2019-04-19T07:40:09.632Z,40.11
2019-04-19T07:41:02.788Z,40.59
2019-04-19T07:42:03.523Z,41.48
2019-04-19T07:43:02.747Z,40.94
2019-04-19T07:43:55.925Z,40.24
2019-04-19T07:44:49.007Z,40.12
2019-04-19T07:46:02.899Z,40.12
2019-04-19T07:46:58.116Z,39.91
2019-04-19T07:47:51.335Z,40.86
2019-04-19T07:48:42.779Z,40.95
2019-04-19T07:49:53.347Z,40.97
2019-04-19T07:50:51.581Z,41.14
2019-04-19T07:51:52.047Z,41.55
2019-04-19T07:52:53.007Z,40.34
2019-04-19T07:53:46.318Z,40.24
2019-04-19T07:54:42.384Z,39.37
2019-04-19T07:55:55.385Z,39.45
2019-04-19T07:56:54.461Z,40.90
2019-04-19T07:58:14.804Z,40.03
2019-04-19T07:59:08.049Z,39.84
2019-04-19T08:00:15.174Z,39.95
2019-04-19T08:01:24.374Z,39.37
2019-04-19T08:03:11.267Z,38.93
2019-04-19T08:04:27.422Z,38.33
2019-04-19T08:05:14.082Z,38.25
2019-04-19T08:06:08.384Z,38.64
2019-04-19T08:10:18.920Z,36.28
2019-04-19T08:12:12.657Z,36.53
2019-04-19T08:15:19.873Z,37.21
2019-04-19T08:18:02.931Z,36.46
2019-04-19T08:27:49.157Z,37.12
2019-04-19T08:28:50.177Z,36.46
2019-04-19T08:29:51.296Z,36.44
2019-04-19T08:30:47.813Z,37.19
2019-04-19T08:31:42.218Z,37.19
2019-04-19T08:32:41.215Z,37.98
2019-04-19T08:33:41.671Z,37.04
2019-04-19T08:34:59.503Z,37.05
2019-04-19T08:35:47.004Z,36.68
2019-04-19T08:36:51.159Z,35.62
2019-04-19T08:37:45.059Z,35.80
2019-04-19T08:39:05.395Z,35.89
2019-04-19T08:39:56.945Z,35.99
2019-04-19T08:40:59.321Z,35.23
2019-04-19T08:42:06.707Z,35.91
2019-04-19T08:42:54.431Z,35.99
2019-04-19T08:43:54.715Z,36.20
2019-04-19T08:44:51.278Z,35.81
2019-04-19T08:45:42.214Z,35.64
2019-04-19T08:46:41.005Z,34.97
2019-04-19T08:47:46.324Z,34.96
2019-04-19T08:48:47.821Z,35.56
2019-04-19T08:49:44.890Z,35.54
2019-04-19T08:50:47.394Z,34.86
2019-04-19T08:51:43.259Z,35.72
2019-04-19T08:52:42.101Z,35.66
2019-04-19T08:53:54.504Z,34.69
2019-04-19T08:55:06.216Z,34.97
2019-04-19T08:56:00.572Z,34.27
2019-04-19T08:56:49.619Z,35.36
2019-04-19T08:57:45.233Z,34.47
2019-04-19T08:58:54.361Z,35.35
2019-04-19T09:00:01.158Z,34.96
2019-04-19T09:01:06.165Z,34.86
2019-04-19T09:02:00.882Z,35.48
2019-04-19T09:02:54.389Z,34.41
2019-04-19T09:04:06.863Z,33.91
2019-04-19T09:05:00.251Z,34.39
2019-04-19T09:06:10.963Z,35.64
2019-04-19T09:07:59.474Z,33.47
2019-04-19T09:08:54.688Z,34.25
2019-04-19T09:10:17.855Z,34.73
2019-04-19T09:11:02.675Z,34.75
2019-04-19T09:12:02.634Z,34.55
2019-04-19T09:13:12.182Z,34.86
2019-04-19T09:14:02.550Z,34.38
2019-04-19T09:15:01.037Z,34.19
2019-04-19T09:16:01.726Z,33.81
2019-04-19T09:17:07.527Z,33.01
2019-04-19T09:19:03.634Z,34.63
2019-04-19T09:20:15.915Z,34.44
2019-04-19T09:20:58.943Z,34.55
2019-04-19T09:21:52.195Z,34.17
2019-04-19T09:22:54.762Z,33.95
2019-04-19T09:23:51.691Z,34.65
2019-04-19T09:24:50.290Z,34.17
2019-04-19T09:25:54.990Z,34.27
2019-04-19T09:26:55.301Z,34.77
2019-04-19T09:28:00.107Z,34.36
2019-04-19T09:29:14.275Z,34.09
2019-04-19T09:29:59.285Z,34.38
2019-04-19T09:30:55.844Z,34.57
2019-04-19T09:31:49.105Z,34.97
2019-04-19T09:32:41.747Z,35.69
2019-04-19T09:33:42.743Z,34.36
2019-04-19T09:34:48.866Z,32.91
2019-04-19T09:35:52.534Z,31.26
2019-04-19T09:36:49.133Z,30.35
2019-04-19T09:37:54.721Z,31.02
2019-04-19T09:38:59.782Z,32.68
2019-04-19T09:39:49.927Z,32.36
2019-04-19T09:40:48.456Z,32.44
2019-04-19T09:41:45.394Z,32.26
2019-04-19T09:42:51.042Z,32.56
2019-04-19T09:43:53.607Z,33.06
2019-04-19T09:44:47.970Z,32.39
2019-04-19T09:45:40.435Z,32.09
2019-04-19T09:46:40.357Z,31.78
2019-04-19T09:47:40.085Z,32.09
2019-04-19T09:48:58.497Z,31.32
2019-04-19T09:49:53.246Z,31.81
2019-04-19T09:50:56.704Z,31.23
2019-04-19T09:51:55.534Z,32.00
2019-04-19T09:53:01.640Z,31.82
2019-04-19T09:54:07.671Z,30.95
2019-04-19T09:55:03.318Z,31.44
2019-04-19T09:56:05.067Z,32.34
2019-04-19T09:56:53.765Z,30.09
2019-04-19T09:58:00.625Z,30.38
2019-04-19T09:58:54.040Z,30.77
2019-04-19T09:59:43.021Z,30.58
2019-04-19T10:00:40.939Z,30.30
2019-04-19T10:01:45.759Z,29.72
2019-04-19T10:02:46.839Z,30.40
2019-04-19T10:03:45.839Z,29.43
2019-04-19T10:04:40.050Z,29.52
2019-04-19T10:05:41.069Z,29.14
2019-04-19T10:06:40.646Z,29.02
2019-04-19T10:07:40.869Z,29.51
2019-04-19T10:08:40.173Z,29.32
2019-04-19T10:09:40.747Z,28.93
2019-04-19T10:10:41.107Z,29.61
2019-04-19T10:11:41.119Z,29.62
2019-04-19T10:12:39.903Z,29.61
2019-04-19T10:13:39.947Z,29.60
2019-04-19T10:14:39.710Z,29.58
2019-04-19T10:15:40.531Z,30.54
2019-04-19T10:16:40.093Z,29.06
2019-04-19T10:17:40.621Z,29.28
2019-04-19T10:18:50.214Z,28.50
2019-04-19T10:19:39.624Z,29.60
2019-04-19T10:20:40.635Z,29.60
2019-04-19T10:21:40.815Z,29.40
2019-04-19T10:22:39.583Z,29.71
2019-04-19T10:23:39.565Z,27.47
2019-04-19T10:24:39.548Z,26.87
2019-04-19T10:25:46.318Z,27.25
2019-04-19T10:26:40.408Z,27.83
2019-04-19T10:27:39.690Z,27.94
2019-04-19T10:28:40.035Z,26.70
2019-04-19T10:29:43.504Z,26.31
2019-04-19T10:30:40.573Z,25.73
2019-04-19T10:31:39.723Z,26.21
2019-04-19T10:32:40.321Z,26.97
2019-04-19T10:33:48.060Z,27.17
2019-04-19T10:34:40.620Z,26.76
2019-04-19T10:35:39.388Z,26.75
2019-04-19T10:36:40.524Z,26.96
2019-04-19T10:37:39.915Z,27.66
2019-04-19T10:38:40.009Z,26.79
2019-04-19T10:39:39.616Z,26.21
2019-04-19T10:40:39.612Z,26.71
2019-04-19T10:41:40.487Z,26.90
2019-04-19T10:42:39.286Z,26.53
2019-04-19T10:43:39.269Z,25.53
2019-04-19T10:44:40.203Z,26.31
2019-04-19T10:45:39.242Z,26.12
2019-04-19T10:46:39.227Z,26.62
2019-04-19T10:47:39.962Z,26.72
2019-04-19T10:48:39.195Z,27.11
2019-04-19T10:49:46.276Z,26.23
2019-04-19T10:50:44.320Z,26.23
2019-04-19T10:51:39.697Z,26.22
2019-04-19T10:52:39.471Z,26.29
2019-04-19T10:53:39.126Z,26.48
2019-04-19T10:54:39.110Z,26.68
2019-04-19T10:55:40.320Z,25.90
2019-04-19T10:56:39.079Z,26.50
2019-04-19T10:57:39.130Z,25.43
2019-04-19T10:58:39.050Z,25.64
2019-04-19T10:59:39.037Z,26.22
2019-04-19T11:00:39.719Z,26.62
2019-04-19T11:01:39.116Z,25.63
2019-04-19T11:02:40.104Z,25.53
2019-04-19T11:03:39.099Z,26.21
2019-04-19T11:04:38.963Z,26.21
2019-04-19T11:05:38.948Z,25.82
2019-04-19T11:06:39.717Z,25.92
2019-04-19T11:07:40.289Z,25.15
2019-04-19T11:08:38.903Z,24.88
2019-04-19T11:09:39.646Z,26.23
2019-04-19T11:10:39.994Z,24.48
2019-04-19T11:11:39.486Z,25.36
2019-04-19T11:12:38.851Z,25.36
2019-04-19T11:13:40.151Z,24.57
2019-04-19T11:14:40.005Z,24.37
2019-04-19T11:15:38.799Z,25.63
2019-04-19T11:16:39.556Z,26.49
2019-04-19T11:17:38.770Z,26.00
2019-04-19T11:18:39.440Z,26.21
2019-04-19T11:19:52.112Z,24.87
2019-04-19T11:20:45.491Z,24.57
2019-04-19T11:21:38.710Z,24.37
2019-04-19T11:22:39.833Z,24.28
2019-04-19T11:23:39.776Z,24.38
2019-04-19T11:24:39.188Z,24.08
2019-04-19T11:25:39.892Z,24.58
2019-04-19T11:26:38.992Z,25.37
2019-04-19T11:27:39.408Z,24.79
2019-04-19T11:28:38.950Z,24.38
2019-04-19T11:29:38.668Z,25.35
2019-04-19T11:30:39.051Z,25.56
2019-04-19T11:31:39.509Z,25.37
2019-04-19T11:32:39.967Z,25.08
2019-04-19T11:33:39.176Z,24.50
2019-04-19T11:34:38.517Z,24.48
2019-04-19T11:35:39.342Z,25.54
2019-04-19T11:36:39.718Z,25.45
2019-04-19T11:37:39.271Z,26.33
2019-04-19T11:38:38.799Z,25.64
2019-04-19T11:39:39.148Z,25.46
2019-04-19T11:40:39.448Z,24.49
2019-04-19T11:41:38.897Z,26.94
2019-04-19T11:42:39.339Z,26.06
2019-04-19T11:43:38.382Z,25.38
2019-04-19T11:44:39.499Z,25.79
2019-04-19T11:45:38.353Z,23.93
2019-04-19T11:46:38.339Z,24.01
2019-04-19T11:47:38.323Z,24.40
2019-04-19T11:48:39.550Z,24.79
2019-04-19T11:49:41.970Z,24.30
2019-04-19T11:50:38.279Z,24.79
2019-04-19T11:51:39.489Z,24.80
2019-04-19T11:52:38.250Z,24.60
2019-04-19T11:53:38.583Z,24.60
2019-04-19T11:54:38.752Z,24.98
2019-04-19T11:55:38.444Z,24.79
2019-04-19T11:56:46.003Z,25.07
2019-04-19T11:57:38.750Z,24.58
2019-04-19T11:58:38.427Z,25.74
2019-04-19T11:59:44.450Z,25.36
2019-04-19T12:00:38.131Z,24.78
2019-04-19T12:01:38.118Z,24.58
2019-04-19T12:02:38.104Z,25.05
2019-04-19T12:03:40.280Z,24.38
2019-04-19T12:04:38.073Z,25.54
2019-04-19T12:05:38.057Z,25.64
2019-04-19T12:06:38.551Z,25.35
2019-04-19T12:07:38.837Z,25.56
2019-04-19T12:08:39.771Z,25.36
2019-04-19T12:09:38.585Z,26.46
2019-04-19T12:10:38.641Z,25.59
2019-04-19T12:11:38.079Z,24.44
2019-04-19T12:12:39.090Z,23.45
2019-04-19T12:13:40.016Z,24.32
2019-04-19T12:14:37.922Z,24.80
2019-04-19T12:15:37.953Z,25.48
2019-04-19T12:16:39.038Z,25.40
2019-04-19T12:17:37.877Z,23.35
2019-04-19T12:18:40.082Z,23.33
2019-04-19T12:19:46.374Z,23.05
2019-04-19T12:20:37.835Z,23.54
2019-04-19T12:21:39.086Z,23.44
2019-04-19T12:22:37.988Z,22.37
2019-04-19T12:23:39.004Z,22.65
2019-04-19T12:24:38.445Z,23.35
2019-04-19T12:25:37.763Z,22.66
2019-04-19T12:26:37.850Z,23.56
2019-04-19T12:27:37.729Z,23.35
2019-04-19T12:28:37.712Z,23.91
2019-04-19T12:29:43.108Z,23.93
2019-04-19T12:30:44.175Z,23.82
2019-04-19T12:31:37.670Z,23.89
2019-04-19T12:32:37.655Z,24.57
2019-04-19T12:33:37.639Z,24.38
2019-04-19T12:34:38.081Z,23.82
2019-04-19T12:35:37.611Z,23.14
2019-04-19T12:36:37.594Z,24.21
2019-04-19T12:37:37.581Z,24.11
2019-04-19T12:38:37.912Z,23.13
2019-04-19T12:39:38.915Z,23.61
2019-04-19T12:40:38.076Z,23.71
2019-04-19T12:41:37.738Z,23.41
2019-04-19T12:42:38.066Z,23.80
2019-04-19T12:43:38.156Z,23.52
2019-04-19T12:44:39.005Z,23.62
2019-04-19T12:45:37.768Z,23.24
2019-04-19T12:46:37.442Z,22.75
2019-04-19T12:47:38.305Z,22.83
2019-04-19T12:48:37.610Z,23.24
2019-04-19T12:49:47.837Z,22.65
2019-04-19T12:50:38.853Z,24.33
2019-04-19T12:51:37.366Z,23.86
2019-04-19T12:52:37.963Z,21.40
2019-04-19T12:53:37.336Z,22.67
2019-04-19T12:54:38.130Z,22.76
2019-04-19T12:55:37.849Z,23.04
2019-04-19T12:56:38.063Z,23.63
2019-04-19T12:57:39.095Z,23.15
2019-04-19T12:58:37.884Z,22.97
2019-04-19T12:59:38.061Z,22.69
2019-04-19T13:00:38.181Z,23.07
2019-04-19T13:01:37.682Z,22.75
2019-04-19T13:02:37.858Z,22.75
2019-04-19T13:03:38.042Z,23.13
2019-04-19T13:04:38.209Z,23.50
2019-04-19T13:05:37.446Z,23.50
2019-04-19T13:06:37.901Z,23.39
2019-04-19T13:07:37.140Z,22.82
2019-04-19T13:08:37.106Z,23.31
2019-04-19T13:09:37.310Z,23.31
2019-04-19T13:10:37.080Z,22.85
2019-04-19T13:11:37.062Z,22.35
2019-04-19T13:12:37.258Z,23.14
2019-04-19T13:13:37.030Z,22.75
2019-04-19T13:14:37.668Z,22.67
2019-04-19T13:15:37.006Z,21.41
2019-04-19T13:16:36.985Z,21.12
2019-04-19T13:17:38.183Z,21.41
2019-04-19T13:18:38.265Z,22.48
2019-04-19T13:19:37.451Z,21.89
2019-04-19T13:20:38.718Z,22.36
2019-04-19T13:21:36.909Z,22.94